Time;durP1;ratioP1;P1;durP2;ratioP2;P2;SDS_P1;SDS_P2;PMS_P1;PMS_P2;Temp;Humidity;BMP_temperature;BMP_pressure;BME280_temperature;BME280_humidity;BME280_pressure;Samples;Min_cycle;Max_cycle;Signal;HPM_P1;HPM_P2
2021/12/19 00:00:10;;;;;;;;;;;6.70;99.90;;;;;;5014375;28;20374;-77
2021/12/19 00:02:48;;;;;;;;;;;6.80;99.90;;;;;;4996102;28;19944;-77
2021/12/19 00:10:42;;;;;;;;;;;6.80;99.90;;;;;;5020330;28;19928;-77
2021/12/19 00:13:09;;;;;;;;;;;6.80;99.90;;;;;;5012384;28;20377;-77
2021/12/19 00:15:34;;;;;;;;;;;6.80;99.90;;;;;;5011853;28;19922;-77
2021/12/19 00:18:00;;;;;;;;;;;6.80;99.90;;;;;;5012287;28;20340;-77
2021/12/19 00:20:25;;;;;;;;;;;6.80;99.90;;;;;;5012159;28;19921;-77
2021/12/19 00:22:51;;;;;;;;;;;6.80;99.90;;;;;;5028516;28;20288;-77
2021/12/19 00:25:16;;;;;;;;;;;6.80;99.90;;;;;;5000543;28;19936;-77
2021/12/19 00:27:42;;;;;;;;;;;6.80;99.90;;;;;;5018867;28;20389;-78
2021/12/19 00:30:07;;;;;;;;;;;6.80;99.90;;;;;;5031204;28;19983;-77
2021/12/19 00:32:33;;;;;;;;;;;6.80;99.90;;;;;;5011930;28;19975;-78
2021/12/19 00:34:58;;;;;;;;;;;6.80;99.90;;;;;;5011914;28;19921;-78
2021/12/19 00:37:24;;;;;;;;;;;6.80;99.90;;;;;;5011050;28;20649;-78
2021/12/19 00:39:49;;;;;;;;;;;6.90;99.90;;;;;;5026027;28;20356;-78
2021/12/19 00:42:29;;;;;;;;;;;6.80;99.90;;;;;;5024058;28;19928;-78
2021/12/19 00:44:55;;;;;;;;;;;6.80;99.90;;;;;;5046236;28;19921;-77
2021/12/19 00:47:20;;;;;;;;;;;6.90;99.90;;;;;;5031564;28;19928;-78
2021/12/19 00:49:46;;;;;;;;;;;6.80;99.90;;;;;;5014766;28;20423;-78
2021/12/19 00:52:11;;;;;;;;;;;6.90;99.90;;;;;;5031171;28;19921;-77
2021/12/19 00:54:36;;;;;;;;;;;6.80;99.90;;;;;;5022022;28;19931;-77
2021/12/19 00:57:03;;;;;;;;;;;6.90;99.90;;;;;;5014305;28;19921;-77
2021/12/19 00:59:29;;;;;;;;;;;6.80;99.90;;;;;;5031493;28;19921;-77
2021/12/19 01:01:55;;;;;;;;;;;6.80;99.90;;;;;;5025639;28;19932;-77
2021/12/19 01:04:20;;;;;;;;;;;6.80;99.90;;;;;;5013656;28;19922;-77
2021/12/19 01:06:47;;;;;;;;;;;6.80;99.90;;;;;;5016971;28;20384;-77
2021/12/19 01:09:12;;;;;;;;;;;6.80;99.90;;;;;;5011355;28;19928;-77
2021/12/19 01:11:38;;;;;;;;;;;6.90;99.90;;;;;;5006684;28;19921;-77
2021/12/19 01:14:04;;;;;;;;;;;6.80;99.90;;;;;;5047573;28;19932;-77
2021/12/19 01:16:29;;;;;;;;;;;6.90;99.90;;;;;;5019564;28;20611;-78
2021/12/19 01:18:55;;;;;;;;;;;6.90;99.90;;;;;;4995036;28;19929;-78
2021/12/19 01:21:20;;;;;;;;;;;6.80;99.90;;;;;;4998721;28;19921;-77
2021/12/19 01:23:46;;;;;;;;;;;6.80;99.90;;;;;;5014709;28;20368;-78
2021/12/19 01:26:12;;;;;;;;;;;6.80;99.90;;;;;;5021748;28;19928;-77
2021/12/19 01:28:37;;;;;;;;;;;6.80;99.90;;;;;;5027679;28;20429;-77
2021/12/19 01:31:03;;;;;;;;;;;6.90;99.90;;;;;;5011320;28;19921;-78
2021/12/19 01:33:28;;;;;;;;;;;6.90;99.90;;;;;;5012306;28;19925;-78
2021/12/19 01:35:54;;;;;;;;;;;6.90;99.90;;;;;;5014173;28;19920;-78
2021/12/19 01:38:19;;;;;;;;;;;6.90;99.90;;;;;;5031057;28;20308;-77
2021/12/19 01:40:45;;;;;;;;;;;6.90;99.90;;;;;;5030408;28;20385;-78
2021/12/19 01:43:10;;;;;;;;;;;6.90;99.90;;;;;;5030633;28;19936;-77
2021/12/19 01:45:37;;;;;;;;;;;6.90;99.90;;;;;;5010849;28;19931;-78
2021/12/19 01:48:05;;;;;;;;;;;6.90;99.90;;;;;;4996078;28;19960;-77
2021/12/19 01:50:31;;;;;;;;;;;6.90;99.90;;;;;;5011270;28;19921;-77
2021/12/19 01:52:57;;;;;;;;;;;6.90;99.90;;;;;;5026861;28;19932;-77
2021/12/19 01:55:22;;;;;;;;;;;6.90;99.90;;;;;;5031116;28;19936;-77
2021/12/19 01:57:48;;;;;;;;;;;6.90;99.90;;;;;;5041781;28;19975;-77
2021/12/19 02:00:24;;;;;;;;;;;6.90;99.90;;;;;;4994872;28;19921;-77
2021/12/19 02:02:50;;;;;;;;;;;6.90;99.90;;;;;;5009797;28;19921;-78
2021/12/19 02:05:15;;;;;;;;;;;6.90;99.90;;;;;;5014216;28;19944;-77
2021/12/19 02:07:46;;;;;;;;;;;6.90;99.90;;;;;;5031124;28;19921;-77
2021/12/19 02:10:12;;;;;;;;;;;6.90;99.90;;;;;;5034225;28;19960;-77
2021/12/19 02:12:38;;;;;;;;;;;6.90;99.90;;;;;;5039209;28;20512;-77
2021/12/19 02:15:04;;;;;;;;;;;6.90;99.90;;;;;;5014445;28;19972;-78
2021/12/19 02:17:29;;;;;;;;;;;6.90;99.90;;;;;;5006752;28;19971;-77
2021/12/19 02:19:56;;;;;;;;;;;7.00;99.90;;;;;;5017647;28;19964;-78
2021/12/19 02:22:21;;;;;;;;;;;6.90;99.90;;;;;;5021863;28;19921;-78
2021/12/19 02:24:47;;;;;;;;;;;6.90;99.90;;;;;;5045398;23;19948;-77
2021/12/19 02:27:13;;;;;;;;;;;6.90;99.90;;;;;;5035668;28;19928;-77
2021/12/19 02:29:39;;;;;;;;;;;6.90;99.90;;;;;;5032723;28;19921;-78
2021/12/19 02:32:06;;;;;;;;;;;6.90;99.90;;;;;;5017219;28;19928;-77
2021/12/19 02:34:38;;;;;;;;;;;6.90;99.90;;;;;;5013787;28;19932;-78
2021/12/19 02:37:33;;;;;;;;;;;6.90;99.90;;;;;;5006282;28;19927;-77
2021/12/19 02:48:14;;;;;;;;;;;6.70;99.90;;;;;;5032658;28;19921;-78
2021/12/19 02:50:48;;;;;;;;;;;6.70;99.90;;;;;;5032741;28;19929;-79
2021/12/19 02:53:19;;;;;;;;;;;6.70;99.90;;;;;;5032541;28;20334;-78
2021/12/19 02:55:45;;;;;;;;;;;6.70;99.90;;;;;;5033043;28;19922;-78
2021/12/19 02:58:12;;;;;;;;;;;6.70;99.90;;;;;;5030133;28;19936;-78
2021/12/19 03:00:38;;;;;;;;;;;6.70;99.90;;;;;;4980518;28;20076;-78
2021/12/19 03:03:04;;;;;;;;;;;6.70;99.90;;;;;;5048867;28;19936;-78
2021/12/19 03:05:32;;;;;;;;;;;6.70;99.90;;;;;;5032998;28;19925;-78
2021/12/19 03:07:58;;;;;;;;;;;6.60;99.90;;;;;;5022832;28;20398;-78
2021/12/19 03:18:31;;;;;;;;;;;6.70;99.90;;;;;;5033072;28;19928;-79
2021/12/19 03:20:57;;;;;;;;;;;6.70;99.90;;;;;;5015890;28;20385;-78
2021/12/19 03:23:25;;;;;;;;;;;6.70;99.90;;;;;;5016258;28;19921;-79
2021/12/19 03:25:51;;;;;;;;;;;6.70;99.90;;;;;;5015557;28;19931;-79
2021/12/19 03:28:17;;;;;;;;;;;6.70;99.90;;;;;;5022033;28;19929;-79
2021/12/19 03:30:43;;;;;;;;;;;6.70;99.90;;;;;;5016277;28;19928;-79
2021/12/19 03:33:10;;;;;;;;;;;6.70;99.90;;;;;;5015825;28;19929;-77
2021/12/19 03:35:37;;;;;;;;;;;6.70;99.90;;;;;;5015914;28;19928;-79
2021/12/19 03:38:05;;;;;;;;;;;6.70;99.90;;;;;;5015669;28;20373;-78
2021/12/19 03:40:43;;;;;;;;;;;6.60;99.90;;;;;;5025093;28;19956;-78
2021/12/19 03:43:14;;;;;;;;;;;6.60;99.90;;;;;;5032479;28;19967;-79
2021/12/19 03:45:41;;;;;;;;;;;6.50;99.90;;;;;;5032376;28;19974;-78
2021/12/19 03:48:11;;;;;;;;;;;6.50;99.90;;;;;;5032266;28;20023;-79
2021/12/19 03:50:48;;;;;;;;;;;6.50;99.90;;;;;;5015681;28;19976;-79
2021/12/19 03:53:16;;;;;;;;;;;6.50;99.90;;;;;;5014659;28;20381;-79
2021/12/19 03:55:45;;;;;;;;;;;6.50;99.90;;;;;;5032560;28;19983;-79
2021/12/19 03:58:12;;;;;;;;;;;6.50;99.90;;;;;;5031931;28;19968;-79
2021/12/19 04:00:38;;;;;;;;;;;6.50;99.90;;;;;;5015485;28;19921;-79
2021/12/19 04:03:07;;;;;;;;;;;6.60;99.90;;;;;;5015071;28;19963;-78
2021/12/19 04:05:32;;;;;;;;;;;6.50;99.90;;;;;;5032469;28;19921;-79
2021/12/19 04:08:02;;;;;;;;;;;6.50;99.90;;;;;;5032299;28;19921;-79
2021/12/19 04:10:28;;;;;;;;;;;6.50;99.90;;;;;;5049157;28;19921;-79
2021/12/19 04:12:57;;;;;;;;;;;6.50;99.90;;;;;;5015557;28;19925;-79
2021/12/19 04:15:24;;;;;;;;;;;6.40;99.90;;;;;;5016339;28;19975;-79
2021/12/19 04:17:50;;;;;;;;;;;6.50;99.90;;;;;;5014932;28;20008;-79
2021/12/19 04:20:18;;;;;;;;;;;6.40;99.90;;;;;;5028525;28;20369;-79
2021/12/19 04:22:51;;;;;;;;;;;6.50;99.90;;;;;;4996407;28;19929;-79
2021/12/19 04:25:18;;;;;;;;;;;6.50;99.90;;;;;;5014117;28;19944;-79
2021/12/19 04:27:44;;;;;;;;;;;6.40;99.90;;;;;;5031415;28;19940;-79
2021/12/19 04:30:11;;;;;;;;;;;6.40;99.90;;;;;;5014289;28;19921;-78
2021/12/19 04:32:42;;;;;;;;;;;6.40;99.90;;;;;;5031019;28;19921;-79
2021/12/19 04:35:09;;;;;;;;;;;6.40;99.90;;;;;;5032321;28;19922;-79
2021/12/19 04:40:28;;;;;;;;;;;6.40;99.90;;;;;;5032025;28;19983;-78
2021/12/19 04:51:26;;;;;;;;;;;6.40;99.90;;;;;;5031607;28;19921;-78
2021/12/19 05:04:26;;;;;;;;;;;6.30;99.90;;;;;;5031820;28;19921;-79
2021/12/19 05:15:12;;;;;;;;;;;6.30;99.90;;;;;;5016295;28;19921;-79
2021/12/19 05:17:38;;;;;;;;;;;6.30;99.90;;;;;;5015656;28;19931;-79
2021/12/19 05:20:16;;;;;;;;;;;6.30;99.90;;;;;;5012476;28;19922;-79
2021/12/19 05:22:48;;;;;;;;;;;6.30;99.90;;;;;;5012424;28;19922;-79
2021/12/19 05:25:14;;;;;;;;;;;6.30;99.90;;;;;;5012561;28;20353;-79
2021/12/19 05:27:44;;;;;;;;;;;6.20;99.90;;;;;;4996311;28;19925;-79
2021/12/19 05:30:12;;;;;;;;;;;6.20;99.90;;;;;;4996268;28;19926;-79
2021/12/19 05:32:40;;;;;;;;;;;6.20;99.90;;;;;;5004334;28;19921;-79
2021/12/19 05:35:07;;;;;;;;;;;6.20;99.90;;;;;;5014518;28;20381;-78
2021/12/19 05:45:49;;;;;;;;;;;6.20;99.90;;;;;;5030269;28;19958;-79
2021/12/19 05:48:17;;;;;;;;;;;6.10;99.90;;;;;;5003829;28;20312;-79
2021/12/19 05:50:48;;;;;;;;;;;6.20;99.90;;;;;;5034925;28;19921;-78
2021/12/19 05:53:15;;;;;;;;;;;6.20;99.90;;;;;;5035488;28;20377;-79
2021/12/19 05:55:43;;;;;;;;;;;6.20;99.90;;;;;;5035795;28;20023;-79
2021/12/19 05:58:09;;;;;;;;;;;6.20;99.90;;;;;;5005892;28;19921;-78
2021/12/19 06:00:40;;;;;;;;;;;6.20;99.90;;;;;;5019370;28;19921;-79
2021/12/19 06:03:06;;;;;;;;;;;6.10;99.90;;;;;;5019137;28;19967;-79
2021/12/19 06:05:35;;;;;;;;;;;6.20;99.90;;;;;;5019482;28;19925;-78
2021/12/19 06:08:03;;;;;;;;;;;6.20;99.90;;;;;;5018277;28;19925;-79
2021/12/19 06:10:30;;;;;;;;;;;6.20;99.90;;;;;;5019087;28;20344;-78
2021/12/19 06:13:08;;;;;;;;;;;6.20;99.90;;;;;;5018964;28;19960;-78
2021/12/19 06:15:36;;;;;;;;;;;6.10;99.90;;;;;;5019900;28;20040;-79
2021/12/19 06:18:02;;;;;;;;;;;6.20;99.90;;;;;;5018263;28;20000;-78
2021/12/19 06:20:29;;;;;;;;;;;6.10;99.90;;;;;;5031033;28;19927;-79
2021/12/19 06:22:55;;;;;;;;;;;6.20;99.90;;;;;;5015569;28;19971;-78
2021/12/19 06:25:23;;;;;;;;;;;6.20;99.90;;;;;;5015011;28;19932;-79
2021/12/19 06:27:50;;;;;;;;;;;6.20;99.90;;;;;;5018482;28;20000;-78
2021/12/19 06:30:16;;;;;;;;;;;6.20;99.90;;;;;;5017752;28;19967;-79
2021/12/19 06:32:42;;;;;;;;;;;6.20;99.90;;;;;;5017288;28;19920;-78
2021/12/19 06:35:17;;;;;;;;;;;6.20;99.90;;;;;;5007737;28;20420;-79
2021/12/19 06:37:43;;;;;;;;;;;6.30;99.90;;;;;;5031955;28;19921;-79
2021/12/19 06:40:10;;;;;;;;;;;6.40;99.90;;;;;;5034812;28;20381;-79
2021/12/19 06:42:36;;;;;;;;;;;6.30;99.90;;;;;;5034960;28;19921;-78
2021/12/19 06:45:03;;;;;;;;;;;6.30;99.90;;;;;;5034670;28;19928;-78
2021/12/19 06:50:32;;;;;;;;;;;6.30;99.90;;;;;;5014444;28;19922;-79
2021/12/19 06:53:01;;;;;;;;;;;6.40;99.90;;;;;;5005659;28;19925;-79
2021/12/19 06:55:27;;;;;;;;;;;6.40;99.90;;;;;;5031780;28;19921;-78
2021/12/19 06:57:56;;;;;;;;;;;6.40;99.90;;;;;;5019628;28;19921;-78
2021/12/19 07:00:22;;;;;;;;;;;6.40;99.90;;;;;;5017267;28;19921;-78
2021/12/19 07:02:59;;;;;;;;;;;6.40;99.90;;;;;;5017964;28;20396;-79
2021/12/19 07:05:25;;;;;;;;;;;6.30;99.90;;;;;;5030699;28;19932;-79
2021/12/19 07:08:07;;;;;;;;;;;6.30;99.90;;;;;;4998214;28;19921;-79
2021/12/19 07:10:42;;;;;;;;;;;6.40;99.90;;;;;;4996791;28;20340;-78
2021/12/19 07:13:19;;;;;;;;;;;6.50;99.90;;;;;;5004683;28;19936;-78
2021/12/19 07:15:55;;;;;;;;;;;6.50;99.90;;;;;;5028673;28;19921;-76
2021/12/19 07:18:25;;;;;;;;;;;6.50;99.90;;;;;;5028092;28;20561;-77
2021/12/19 07:20:50;;;;;;;;;;;6.50;99.90;;;;;;5051961;28;20007;-77
2021/12/19 07:23:20;;;;;;;;;;;6.40;99.90;;;;;;5015209;28;19921;-77
2021/12/19 07:25:46;;;;;;;;;;;6.50;99.90;;;;;;5015811;28;19944;-77
2021/12/19 07:28:12;;;;;;;;;;;6.50;99.90;;;;;;5015799;28;19976;-77
2021/12/19 07:30:38;;;;;;;;;;;6.50;99.90;;;;;;5014849;28;19921;-77
2021/12/19 07:33:05;;;;;;;;;;;6.40;99.90;;;;;;5023452;28;19932;-77
2021/12/19 07:35:36;;;;;;;;;;;6.50;99.90;;;;;;5001187;28;19925;-77
2021/12/19 07:38:03;;;;;;;;;;;6.50;99.90;;;;;;5021093;28;19921;-77
2021/12/19 07:40:39;;;;;;;;;;;6.50;99.90;;;;;;5003905;28;19921;-76
2021/12/19 07:43:10;;;;;;;;;;;6.50;99.90;;;;;;5033036;28;19924;-77
2021/12/19 07:45:37;;;;;;;;;;;6.50;99.90;;;;;;5037326;28;19921;-77
2021/12/19 07:48:03;;;;;;;;;;;6.40;99.90;;;;;;5038670;28;19929;-77
2021/12/19 07:50:29;;;;;;;;;;;6.50;99.90;;;;;;5039252;28;19921;-77
2021/12/19 07:52:58;;;;;;;;;;;6.50;99.90;;;;;;5021997;28;19976;-77
2021/12/19 07:55:24;;;;;;;;;;;6.50;99.90;;;;;;5003739;28;19929;-77
2021/12/19 07:57:51;;;;;;;;;;;6.50;99.90;;;;;;5002523;28;19984;-79
2021/12/19 08:00:19;;;;;;;;;;;6.50;99.90;;;;;;5012211;28;19940;-79
2021/12/19 08:02:49;;;;;;;;;;;6.50;99.90;;;;;;5008030;28;19975;-79
2021/12/19 08:05:16;;;;;;;;;;;6.50;99.90;;;;;;5015454;28;19921;-78
2021/12/19 08:07:47;;;;;;;;;;;6.50;99.90;;;;;;5015548;28;19998;-78
2021/12/19 08:12:44;;;;;;;;;;;6.50;99.90;;;;;;5022402;28;19921;-78
2021/12/19 08:15:15;;;;;;;;;;;6.50;99.90;;;;;;5031212;28;20289;-78
2021/12/19 08:17:40;;;;;;;;;;;6.50;99.90;;;;;;5031642;28;20289;-78
2021/12/19 08:20:09;;;;;;;;;;;6.50;99.90;;;;;;5026584;28;19921;-78
2021/12/19 08:22:35;;;;;;;;;;;6.50;99.90;;;;;;4995012;28;20340;-78
2021/12/19 08:25:00;;;;;;;;;;;6.50;99.90;;;;;;5030634;23;20388;-82
2021/12/19 08:27:27;;;;;;;;;;;6.50;99.90;;;;;;5019290;28;19922;-82
2021/12/19 08:29:54;;;;;;;;;;;6.50;99.90;;;;;;5013053;28;19957;-82
2021/12/19 08:32:20;;;;;;;;;;;6.50;99.90;;;;;;5038368;28;19921;-82
2021/12/19 08:34:46;;;;;;;;;;;6.50;99.90;;;;;;5016514;28;20019;-82
2021/12/19 08:37:11;;;;;;;;;;;6.50;99.90;;;;;;5014750;28;19948;-81
2021/12/19 08:39:38;;;;;;;;;;;6.50;99.90;;;;;;5035790;28;20347;-82
2021/12/19 08:42:06;;;;;;;;;;;6.60;99.90;;;;;;5015025;28;19921;-80
2021/12/19 08:44:32;;;;;;;;;;;6.60;99.90;;;;;;5028820;28;19991;-82
2021/12/19 08:46:59;;;;;;;;;;;6.60;99.90;;;;;;5010227;28;21358;-82
2021/12/19 08:49:24;;;;;;;;;;;6.60;99.90;;;;;;5020941;28;19932;-82
2021/12/19 08:51:50;;;;;;;;;;;6.60;99.90;;;;;;5055338;28;19921;-82
2021/12/19 08:54:16;;;;;;;;;;;6.60;99.90;;;;;;5007739;28;19964;-82
2021/12/19 08:56:41;;;;;;;;;;;6.60;99.90;;;;;;5009771;28;19921;-83
2021/12/19 08:59:07;;;;;;;;;;;6.60;99.90;;;;;;4995261;28;19926;-82
2021/12/19 09:01:32;;;;;;;;;;;6.70;99.90;;;;;;5011553;28;19971;-82
2021/12/19 09:03:58;;;;;;;;;;;6.70;99.90;;;;;;5007076;28;19921;-82
2021/12/19 09:06:24;;;;;;;;;;;6.70;99.90;;;;;;5008383;28;19921;-82
2021/12/19 09:08:49;;;;;;;;;;;6.70;99.90;;;;;;5044153;28;20377;-82
2021/12/19 09:11:15;;;;;;;;;;;6.70;99.90;;;;;;5042274;28;19925;-83
2021/12/19 09:13:40;;;;;;;;;;;6.60;99.90;;;;;;5014752;28;19925;-84
2021/12/19 09:16:06;;;;;;;;;;;6.70;99.90;;;;;;5014013;28;19936;-84
2021/12/19 09:18:31;;;;;;;;;;;6.70;99.90;;;;;;5031343;28;19921;-84
2021/12/19 09:20:57;;;;;;;;;;;6.70;99.90;;;;;;5039163;28;20359;-83
2021/12/19 09:23:22;;;;;;;;;;;6.70;99.90;;;;;;5005451;28;20435;-83
2021/12/19 09:25:48;;;;;;;;;;;6.70;99.90;;;;;;5035099;28;19988;-83
2021/12/19 09:28:13;;;;;;;;;;;6.70;99.90;;;;;;5019605;28;19948;-82
2021/12/19 09:30:40;;;;;;;;;;;6.80;99.90;;;;;;5060281;28;19927;-81
2021/12/19 09:33:05;;;;;;;;;;;6.80;99.90;;;;;;5025610;28;19976;-82
2021/12/19 09:35:31;;;;;;;;;;;6.80;99.90;;;;;;5044793;28;19956;-82
2021/12/19 09:37:56;;;;;;;;;;;6.80;99.90;;;;;;5041494;28;19928;-82
2021/12/19 09:40:31;;;;;;;;;;;6.80;99.90;;;;;;5047486;28;19921;-82
2021/12/19 09:43:01;;;;;;;;;;;6.80;99.90;;;;;;5025362;28;19941;-82
2021/12/19 09:45:27;;;;;;;;;;;6.90;99.90;;;;;;5040589;28;19944;-82
2021/12/19 09:47:52;;;;;;;;;;;6.90;99.90;;;;;;5065563;28;20380;-82
2021/12/19 09:50:18;;;;;;;;;;;6.90;99.90;;;;;;5044552;28;19943;-82
2021/12/19 09:52:44;;;;;;;;;;;6.90;99.90;;;;;;5037860;28;20369;-82
2021/12/19 09:55:10;;;;;;;;;;;6.90;99.90;;;;;;5042024;28;20304;-82
2021/12/19 09:57:35;;;;;;;;;;;6.90;99.90;;;;;;5074246;28;19921;-81
2021/12/19 10:00:01;;;;;;;;;;;7.00;99.90;;;;;;5047508;28;20296;-81
2021/12/19 10:02:27;;;;;;;;;;;7.00;99.90;;;;;;5042789;28;19976;-81
2021/12/19 10:04:53;;;;;;;;;;;7.00;99.90;;;;;;5047063;28;20331;-81
2021/12/19 10:07:20;;;;;;;;;;;7.00;99.90;;;;;;5038872;28;19947;-81
2021/12/19 10:09:59;;;;;;;;;;;7.10;99.90;;;;;;5048525;28;20000;-82
2021/12/19 10:15:10;;;;;;;;;;;7.20;99.90;;;;;;5037538;28;19925;-81
2021/12/19 10:17:36;;;;;;;;;;;7.20;99.90;;;;;;5047810;28;19925;-82
2021/12/19 10:20:03;;;;;;;;;;;7.20;99.90;;;;;;5038119;28;20396;-82
2021/12/19 10:22:35;;;;;;;;;;;7.20;99.90;;;;;;5036559;28;19975;-82
2021/12/19 10:25:19;;;;;;;;;;;7.20;99.90;;;;;;5047795;28;19972;-82
2021/12/19 10:27:46;;;;;;;;;;;7.20;99.90;;;;;;5036205;28;20138;-82
2021/12/19 10:30:17;;;;;;;;;;;7.30;99.90;;;;;;5039297;28;19921;-82
2021/12/19 10:32:53;;;;;;;;;;;7.20;99.90;;;;;;5042046;28;19974;-82
2021/12/19 10:35:20;;;;;;;;;;;7.20;99.90;;;;;;5019734;28;20007;-82
2021/12/19 10:37:46;;;;;;;;;;;7.30;99.90;;;;;;5066404;28;20335;-82
2021/12/19 10:40:11;;;;;;;;;;;7.30;99.90;;;;;;5020514;28;19921;-82
2021/12/19 10:42:44;;;;;;;;;;;7.30;99.90;;;;;;5047367;28;19921;-82
2021/12/19 10:48:10;;;;;;;;;;;7.30;99.90;;;;;;5044749;28;19928;-81
2021/12/19 10:50:44;;;;;;;;;;;7.40;99.90;;;;;;5059442;28;20008;-82
2021/12/19 10:53:10;;;;;;;;;;;7.40;99.90;;;;;;5065679;28;19925;-81
2021/12/19 10:55:43;;;;;;;;;;;7.40;99.90;;;;;;5032727;28;19966;-82
2021/12/19 10:58:27;;;;;;;;;;;7.40;99.90;;;;;;5033001;28;19940;-82
2021/12/19 11:01:03;;;;;;;;;;;7.50;99.90;;;;;;5021436;28;19921;-82
2021/12/19 11:03:52;;;;;;;;;;;7.40;99.90;;;;;;5002483;28;19932;-82
2021/12/19 11:06:22;;;;;;;;;;;7.40;99.90;;;;;;5016307;28;19921;-82
2021/12/19 11:08:49;;;;;;;;;;;7.40;99.90;;;;;;5055730;28;19921;-82
2021/12/19 11:11:29;;;;;;;;;;;7.50;99.90;;;;;;5053380;28;19921;-82
2021/12/19 11:13:55;;;;;;;;;;;7.50;99.90;;;;;;5040398;28;19955;-82
2021/12/19 11:16:20;;;;;;;;;;;7.50;99.90;;;;;;5053531;28;20284;-81
2021/12/19 11:18:46;;;;;;;;;;;7.50;99.90;;;;;;5018473;28;19972;-82
2021/12/19 11:21:12;;;;;;;;;;;7.50;99.90;;;;;;5033638;28;20349;-83
2021/12/19 11:23:37;;;;;;;;;;;7.50;99.90;;;;;;5057653;28;19921;-83
2021/12/19 11:26:03;;;;;;;;;;;7.50;99.90;;;;;;5055854;28;19921;-84
2021/12/19 11:28:29;;;;;;;;;;;7.60;99.90;;;;;;5033434;28;19971;-84
2021/12/19 11:30:54;;;;;;;;;;;7.50;99.90;;;;;;5029251;28;20393;-84
2021/12/19 11:33:38;;;;;;;;;;;7.50;99.90;;;;;;5019059;28;19932;-84
2021/12/19 11:36:05;;;;;;;;;;;7.50;99.90;;;;;;5035944;28;19960;-84
2021/12/19 11:38:30;;;;;;;;;;;7.50;99.90;;;;;;5032540;28;20290;-83
2021/12/19 11:40:56;;;;;;;;;;;7.60;99.90;;;;;;5016907;28;20141;-83
2021/12/19 11:43:21;;;;;;;;;;;7.60;99.90;;;;;;5013532;28;20381;-83
2021/12/19 11:45:59;;;;;;;;;;;7.60;99.90;;;;;;5012629;28;19952;-84
2021/12/19 11:48:34;;;;;;;;;;;7.60;99.90;;;;;;5012412;28;19921;-84
2021/12/19 11:51:04;;;;;;;;;;;7.60;99.90;;;;;;5029049;28;19921;-84
2021/12/19 11:53:39;;;;;;;;;;;7.60;99.90;;;;;;5029143;28;20126;-84
2021/12/19 11:56:11;;;;;;;;;;;7.60;99.90;;;;;;5031997;28;19929;-84
2021/12/19 11:58:45;;;;;;;;;;;7.60;99.90;;;;;;5047446;28;19992;-84
2021/12/19 12:01:19;;;;;;;;;;;7.60;99.90;;;;;;5016056;28;19921;-84
2021/12/19 12:03:44;;;;;;;;;;;7.60;99.90;;;;;;5043374;28;19928;-84
2021/12/19 12:06:20;;;;;;;;;;;7.60;99.90;;;;;;5013567;28;19921;-84
2021/12/19 12:09:05;;;;;;;;;;;7.70;99.90;;;;;;4995938;28;20019;-84
2021/12/19 12:11:34;;;;;;;;;;;7.70;99.90;;;;;;4997870;28;19921;-84
2021/12/19 12:14:18;;;;;;;;;;;7.60;99.90;;;;;;5011904;28;20015;-84
2021/12/19 12:16:55;;;;;;;;;;;7.60;99.90;;;;;;5028988;28;19921;-84
2021/12/19 12:19:41;;;;;;;;;;;7.60;99.90;;;;;;5015478;28;19980;-84
2021/12/19 12:22:19;;;;;;;;;;;7.60;99.90;;;;;;4996850;28;19925;-84
2021/12/19 12:25:03;;;;;;;;;;;7.70;99.90;;;;;;5023820;28;19921;-84
2021/12/19 12:27:33;;;;;;;;;;;7.60;99.90;;;;;;5044913;28;19922;-84
2021/12/19 12:29:59;;;;;;;;;;;7.60;99.90;;;;;;5033031;28;19925;-82
2021/12/19 12:32:24;;;;;;;;;;;7.60;99.90;;;;;;5031421;28;19925;-83
2021/12/19 12:34:50;;;;;;;;;;;7.60;99.90;;;;;;5014892;28;19925;-84
2021/12/19 12:37:15;;;;;;;;;;;7.60;99.90;;;;;;5022855;28;19921;-84
2021/12/19 12:39:41;;;;;;;;;;;7.60;99.90;;;;;;5016835;28;20011;-83
2021/12/19 12:42:10;;;;;;;;;;;7.60;99.90;;;;;;5037299;28;19922;-83
2021/12/19 12:44:36;;;;;;;;;;;7.60;99.90;;;;;;5009311;28;20020;-83
2021/12/19 12:47:02;;;;;;;;;;;7.70;99.90;;;;;;5026644;28;20416;-83
2021/12/19 12:49:34;;;;;;;;;;;7.60;99.90;;;;;;5031525;28;20013;-84
2021/12/19 12:52:06;;;;;;;;;;;7.70;99.90;;;;;;5026663;28;20527;-84
2021/12/19 12:54:37;;;;;;;;;;;7.60;99.90;;;;;;5044883;28;19925;-82
2021/12/19 12:57:05;;;;;;;;;;;7.60;99.90;;;;;;5013573;28;19921;-83
2021/12/19 12:59:32;;;;;;;;;;;7.60;99.90;;;;;;5056708;28;19939;-82
2021/12/19 13:02:09;;;;;;;;;;;7.60;99.90;;;;;;5000458;28;19921;-83
2021/12/19 13:04:35;;;;;;;;;;;7.60;99.90;;;;;;5031950;28;19944;-82
2021/12/19 13:07:14;;;;;;;;;;;7.60;99.90;;;;;;5025424;28;19921;-82
2021/12/19 13:09:41;;;;;;;;;;;7.60;99.90;;;;;;5014004;28;20393;-83
2021/12/19 13:12:12;;;;;;;;;;;7.60;99.90;;;;;;5043556;28;19955;-82
2021/12/19 13:14:39;;;;;;;;;;;7.60;99.90;;;;;;5015477;28;20028;-83
2021/12/19 13:17:06;;;;;;;;;;;7.60;99.90;;;;;;5034462;28;20446;-83
2021/12/19 13:19:33;;;;;;;;;;;7.60;99.90;;;;;;5030090;28;20300;-83
2021/12/19 13:21:58;;;;;;;;;;;7.60;99.90;;;;;;5011457;28;19930;-83
2021/12/19 13:24:24;;;;;;;;;;;7.60;99.90;;;;;;5028732;28;20397;-83
2021/12/19 13:27:03;;;;;;;;;;;7.60;99.90;;;;;;4995100;28;19925;-83
2021/12/19 13:29:29;;;;;;;;;;;7.60;99.90;;;;;;5008654;28;19983;-83
2021/12/19 13:32:14;;;;;;;;;;;7.50;99.90;;;;;;5046172;28;19924;-83
2021/12/19 13:34:40;;;;;;;;;;;7.50;99.90;;;;;;5028167;28;19925;-83
2021/12/19 13:37:05;;;;;;;;;;;7.60;99.90;;;;;;5017059;28;19967;-83
2021/12/19 13:39:31;;;;;;;;;;;7.50;99.90;;;;;;5021035;28;19925;-83
2021/12/19 13:42:05;;;;;;;;;;;7.50;99.90;;;;;;5004824;28;19921;-84
2021/12/19 13:44:31;;;;;;;;;;;7.50;99.90;;;;;;5025524;28;19925;-83
2021/12/19 13:46:57;;;;;;;;;;;7.60;99.90;;;;;;5033688;28;20007;-83
2021/12/19 13:49:22;;;;;;;;;;;7.50;99.90;;;;;;5007840;28;20013;-82
2021/12/19 13:51:48;;;;;;;;;;;7.50;99.90;;;;;;5012344;28;19921;-81
2021/12/19 13:54:13;;;;;;;;;;;7.50;99.90;;;;;;5044435;28;19925;-81
2021/12/19 13:56:39;;;;;;;;;;;7.50;99.90;;;;;;5040050;28;19921;-81
2021/12/19 13:59:06;;;;;;;;;;;7.50;99.90;;;;;;5044262;28;19933;-81
2021/12/19 14:01:38;;;;;;;;;;;7.50;99.90;;;;;;5028031;28;20012;-80
2021/12/19 14:04:15;;;;;;;;;;;7.50;99.90;;;;;;5060465;28;19921;-80
2021/12/19 14:06:41;;;;;;;;;;;7.50;99.90;;;;;;5026897;28;19928;-80
2021/12/19 14:09:13;;;;;;;;;;;7.50;99.90;;;;;;5033844;28;19921;-80
2021/12/19 14:11:41;;;;;;;;;;;7.50;99.90;;;;;;5041171;28;19928;-80
2021/12/19 14:14:09;;;;;;;;;;;7.50;99.90;;;;;;5041249;28;19930;-81
2021/12/19 14:16:36;;;;;;;;;;;7.50;99.90;;;;;;5028908;28;20165;-82
2021/12/19 14:19:14;;;;;;;;;;;7.50;99.90;;;;;;5009246;28;19925;-84
2021/12/19 14:21:40;;;;;;;;;;;7.50;99.90;;;;;;5034568;28;19928;-82
2021/12/19 14:24:14;;;;;;;;;;;7.50;99.90;;;;;;5044250;28;19925;-81
2021/12/19 14:26:40;;;;;;;;;;;7.50;99.90;;;;;;5033251;28;19922;-79
2021/12/19 14:29:15;;;;;;;;;;;7.50;99.90;;;;;;5039433;28;20278;-81
2021/12/19 14:31:48;;;;;;;;;;;7.40;99.90;;;;;;4999049;28;19925;-80
2021/12/19 14:34:18;;;;;;;;;;;7.40;99.90;;;;;;5023855;28;19925;-80
2021/12/19 14:37:00;;;;;;;;;;;7.40;99.90;;;;;;5044202;22;20000;-81
2021/12/19 14:43:32;;;;;;;;;;;7.40;99.90;;;;;;4964725;28;20267;-80
2021/12/19 14:46:04;;;;;;;;;;;7.40;99.90;;;;;;4988532;28;20297;-80
2021/12/19 14:55:06;;;;;;;;;;;7.40;99.90;;;;;;4995528;22;20440;-78
2021/12/19 14:57:31;;;;;;;;;;;7.40;99.90;;;;;;4940185;28;19929;-80
2021/12/19 14:59:57;;;;;;;;;;;7.40;99.90;;;;;;4941614;28;19922;-78
2021/12/19 15:02:22;;;;;;;;;;;7.40;99.90;;;;;;4941444;28;19922;-80
2021/12/19 15:04:48;;;;;;;;;;;7.30;99.90;;;;;;4939801;28;20490;-80
2021/12/19 15:07:13;;;;;;;;;;;7.30;99.90;;;;;;4922648;29;19926;-80
2021/12/19 15:09:39;;;;;;;;;;;7.30;99.90;;;;;;4922326;29;19961;-80
2021/12/19 15:12:04;;;;;;;;;;;7.30;99.90;;;;;;4934494;28;20301;-80
2021/12/19 15:14:30;;;;;;;;;;;7.30;99.90;;;;;;4921214;28;19985;-80
2021/12/19 15:16:55;;;;;;;;;;;7.30;99.90;;;;;;4970128;23;19977;-81
2021/12/19 15:19:21;;;;;;;;;;;7.30;99.90;;;;;;4989304;28;19922;-81
2021/12/19 15:21:47;;;;;;;;;;;7.30;99.90;;;;;;4970666;28;20437;-82
2021/12/19 15:24:13;;;;;;;;;;;7.30;99.90;;;;;;4964086;28;20371;-82
2021/12/19 15:26:38;;;;;;;;;;;7.30;99.90;;;;;;4956963;28;19929;-80
2021/12/19 15:29:06;;;;;;;;;;;7.30;99.90;;;;;;4973101;28;19926;-81
2021/12/19 15:31:33;;;;;;;;;;;7.30;99.90;;;;;;4949119;29;19973;-80
2021/12/19 15:33:58;;;;;;;;;;;7.20;99.90;;;;;;4954366;28;19935;-80
2021/12/19 15:36:24;;;;;;;;;;;7.30;99.90;;;;;;4963999;28;19990;-82
2021/12/19 15:38:50;;;;;;;;;;;7.30;99.90;;;;;;4933717;29;20339;-81
2021/12/19 15:41:16;;;;;;;;;;;7.20;99.90;;;;;;4927237;29;19922;-82
2021/12/19 15:43:41;;;;;;;;;;;7.20;99.90;;;;;;4934054;29;19922;-81
2021/12/19 15:46:07;;;;;;;;;;;7.20;99.90;;;;;;4936880;29;20280;-82
2021/12/19 15:48:32;;;;;;;;;;;7.20;99.90;;;;;;4937239;29;19922;-81
2021/12/19 15:50:58;;;;;;;;;;;7.20;99.90;;;;;;4953369;29;19985;-81
2021/12/19 15:53:24;;;;;;;;;;;7.20;99.90;;;;;;4962637;28;19930;-81
2021/12/19 15:55:49;;;;;;;;;;;7.20;99.90;;;;;;4959577;28;19945;-81
2021/12/19 15:58:15;;;;;;;;;;;7.20;99.90;;;;;;4960770;28;19973;-82